Time,TemperatureF,DewpointF,PressureIn,WindDirection,WindDirectionDegrees,WindSpeedMPH,WindSpeedGustMPH,Humidity,HourlyPrecipIn,Conditions,Clouds,dailyrainin,SoftwareType,DateUTC
2013-08-07 00:00:00,55.8,54.4,30.09,South,171,0.0,0.0,95,0.00,,---,0.00,VWS V14.00,2013-08-07 07:00:00,
2013-08-07 00:29:00,55.8,54.1,30.09,SSE,149,0.0,0.0,94,0.00,,---,0.00,VWS V14.00,2013-08-07 07:29:00,
2013-08-07 00:30:00,55.8,54.1,30.09,SSE,149,0.0,0.0,94,0.00,,---,0.00,VWS V14.00,2013-08-07 07:30:00,
2013-08-07 00:59:00,55.8,54.1,30.10,West,263,0.0,0.0,94,0.00,,---,0.00,VWS V14.00,2013-08-07 07:59:00,
2013-08-07 01:00:00,55.8,54.1,30.10,West,263,0.0,0.0,94,0.00,,---,0.00,VWS V14.00,2013-08-07 08:00:00,
2013-08-07 01:29:00,55.8,54.4,30.10,WSW,254,0.0,0.0,95,0.00,,---,0.00,VWS V14.00,2013-08-07 08:29:00,
2013-08-07 01:30:00,55.8,54.4,30.10,WSW,254,0.0,0.0,95,0.00,,---,0.00,VWS V14.00,2013-08-07 08:30:00,
2013-08-07 01:59:00,55.5,53.8,30.09,SSW,213,0.0,0.0,94,0.00,,---,0.00,VWS V14.00,2013-08-07 08:59:00,
2013-08-07 02:00:00,55.5,53.8,30.09,SSW,213,0.0,0.0,94,0.00,,---,0.00,VWS V14.00,2013-08-07 09:00:00,
2013-08-07 02:29:00,55.3,53.9,30.10,West,259,0.0,0.0,95,0.00,,---,0.00,VWS V14.00,2013-08-07 09:29:00,
2013-08-07 02:30:00,55.3,53.9,30.10,West,259,0.0,0.0,95,0.00,,---,0.00,VWS V14.00,2013-08-07 09:30:00,
2013-08-07 02:59:00,55.1,54.0,30.09,WSW,258,0.0,0.0,96,0.00,,---,0.00,VWS V14.00,2013-08-07 09:59:00,
2013-08-07 03:00:00,55.1,54.0,30.09,WSW,258,0.0,0.0,96,0.00,,---,0.00,VWS V14.00,2013-08-07 10:00:00,
2013-08-07 03:29:00,55.3,54.2,30.09,South,190,0.0,0.0,96,0.00,,---,0.01,VWS V14.00,2013-08-07 10:29:00,
2013-08-07 03:30:00,55.3,54.2,30.09,South,190,0.0,0.0,96,0.00,,---,0.01,VWS V14.00,2013-08-07 10:30:00,
2013-08-07 03:59:00,55.2,54.4,30.08,SSE,167,0.0,0.0,97,0.00,,---,0.01,VWS V14.00,2013-08-07 10:59:00,
2013-08-07 04:00:00,55.2,54.4,30.08,SSE,167,0.0,0.0,97,0.00,,---,0.01,VWS V14.00,2013-08-07 11:00:00,
2013-08-07 04:29:00,55.2,54.4,30.08,SSE,168,0.0,0.0,97,0.00,,---,0.01,VWS V14.00,2013-08-07 11:29:00,
2013-08-07 04:30:00,55.2,54.4,30.08,SSE,168,0.0,0.0,97,0.00,,---,0.01,VWS V14.00,2013-08-07 11:30:00,
2013-08-07 04:59:00,55.3,54.5,30.08,SSE,168,0.0,0.0,97,0.00,,---,0.01,VWS V14.00,2013-08-07 11:59:00,
2013-08-07 05:00:00,55.3,54.5,30.08,SSE,168,0.0,0.0,97,0.00,,---,0.01,VWS V14.00,2013-08-07 12:00:00,
2013-08-07 05:29:00,55.4,54.6,30.08,SSE,168,0.0,0.0,97,0.00,,---,0.01,VWS V14.00,2013-08-07 12:29:00,
2013-08-07 05:30:00,55.4,54.6,30.08,SSE,168,0.0,0.0,97,0.00,,---,0.01,VWS V14.00,2013-08-07 12:30:00,
2013-08-07 05:59:00,55.3,54.5,30.08,South,173,0.0,0.0,97,0.07,,---,0.03,VWS V14.00,2013-08-07 12:59:00,
2013-08-07 06:00:00,55.3,54.5,30.08,South,173,0.0,0.0,97,0.07,,---,0.03,VWS V14.00,2013-08-07 13:00:00,
2013-08-07 06:29:00,55.3,54.8,30.09,South,173,0.0,0.0,98,0.00,,---,0.04,VWS V14.00,2013-08-07 13:29:00,
2013-08-07 06:30:00,55.3,54.8,30.09,South,173,0.0,0.0,98,0.00,,---,0.04,VWS V14.00,2013-08-07 13:30:00,
2013-08-07 06:59:00,55.3,54.8,30.09,South,173,0.0,0.0,98,0.00,,---,0.04,VWS V14.00,2013-08-07 13:59:00,
2013-08-07 07:00:00,55.3,54.8,30.09,South,173,0.0,0.0,98,0.00,,---,0.04,VWS V14.00,2013-08-07 14:00:00,
2013-08-07 07:29:00,55.4,54.8,30.10,South,173,0.0,0.0,98,0.00,,---,0.04,VWS V14.00,2013-08-07 14:29:00,
2013-08-07 07:30:00,55.4,54.8,30.10,South,173,0.0,0.0,98,0.00,,---,0.04,VWS V14.00,2013-08-07 14:30:00,
2013-08-07 07:59:00,55.7,55.2,30.11,South,173,0.0,0.0,98,0.00,,---,0.05,VWS V14.00,2013-08-07 14:59:00,
2013-08-07 08:00:00,55.7,55.2,30.11,South,173,0.0,0.0,98,0.00,,---,0.05,VWS V14.00,2013-08-07 15:00:00,
2013-08-07 08:29:00,56.3,55.8,30.11,South,173,0.0,0.0,98,0.00,,---,0.05,VWS V14.00,2013-08-07 15:29:00,
2013-08-07 08:30:00,56.3,55.7,30.11,South,173,0.0,0.0,98,0.00,,---,0.05,VWS V14.00,2013-08-07 15:30:00,
2013-08-07 08:59:00,57.1,56.5,30.12,South,173,0.0,0.0,98,0.00,,---,0.05,VWS V14.00,2013-08-07 15:59:00,
2013-08-07 09:00:00,57.1,56.5,30.12,South,173,0.0,0.0,98,0.00,,---,0.05,VWS V14.00,2013-08-07 16:00:00,
2013-08-07 09:29:00,57.4,56.8,30.12,WSW,249,0.0,0.0,98,0.00,,---,0.05,VWS V14.00,2013-08-07 16:29:00,
2013-08-07 09:30:00,57.4,56.8,30.12,WSW,249,0.0,0.0,98,0.00,,---,0.05,VWS V14.00,2013-08-07 16:30:00,
2013-08-07 09:59:00,57.3,56.7,30.13,SSW,196,0.0,0.0,98,0.00,,---,0.05,VWS V14.00,2013-08-07 16:59:00,
2013-08-07 10:00:00,57.3,56.7,30.13,SSW,196,0.0,0.0,98,0.00,,---,0.05,VWS V14.00,2013-08-07 17:00:00,
2013-08-07 10:29:00,57.4,56.6,30.14,WSW,241,0.0,0.0,97,0.00,,---,0.05,VWS V14.00,2013-08-07 17:29:00,
2013-08-07 10:30:00,57.4,56.6,30.14,WSW,241,0.0,0.0,97,0.00,,---,0.05,VWS V14.00,2013-08-07 17:30:00,
2013-08-07 10:59:00,58.1,57.3,30.14,SSW,198,0.0,0.0,97,0.00,,---,0.05,VWS V14.00,2013-08-07 17:59:00,
2013-08-07 11:00:00,58.1,57.3,30.14,SSW,198,0.0,0.0,97,0.00,,---,0.05,VWS V14.00,2013-08-07 18:00:00,
2013-08-07 11:29:00,58.9,57.2,30.15,WSW,244,0.0,0.0,94,0.00,,---,0.05,VWS V14.00,2013-08-07 18:29:00,
2013-08-07 11:30:00,58.9,57.2,30.15,WSW,244,0.0,0.0,94,0.00,,---,0.05,VWS V14.00,2013-08-07 18:30:00,
2013-08-07 11:59:00,60.8,57.2,30.13,SW,217,0.0,0.0,88,0.00,,---,0.05,VWS V14.00,2013-08-07 18:59:00,
2013-08-07 12:00:00,60.8,57.2,30.13,SW,217,0.0,0.0,88,0.00,,---,0.05,VWS V14.00,2013-08-07 19:00:00,
2013-08-07 12:29:00,60.8,56.6,30.13,WSW,254,0.0,0.0,86,0.00,,---,0.05,VWS V14.00,2013-08-07 19:29:00,
2013-08-07 12:30:00,60.8,56.6,30.13,WSW,254,0.0,0.0,86,0.00,,---,0.05,VWS V14.00,2013-08-07 19:30:00,
2013-08-07 12:59:00,62.4,57.5,30.13,South,191,0.0,0.0,84,0.00,,---,0.05,VWS V14.00,2013-08-07 19:59:00,
2013-08-07 13:00:00,62.4,57.5,30.13,South,191,0.0,0.0,84,0.00,,---,0.05,VWS V14.00,2013-08-07 20:00:00,
2013-08-07 13:29:00,62.7,57.1,30.13,SSW,213,0.0,0.0,82,0.00,,---,0.05,VWS V14.00,2013-08-07 20:29:00,
2013-08-07 13:30:00,62.7,57.1,30.13,SSW,213,0.0,0.0,82,0.00,,---,0.05,VWS V14.00,2013-08-07 20:30:00,
2013-08-07 13:59:00,63.4,56.4,30.12,South,185,0.0,0.0,78,0.00,,---,0.05,VWS V14.00,2013-08-07 20:59:00,
2013-08-07 14:00:00,63.4,56.4,30.12,South,185,0.0,0.0,78,0.00,,---,0.05,VWS V14.00,2013-08-07 21:00:00,
2013-08-07 14:29:00,63.3,56.3,30.12,SW,219,0.0,0.0,78,0.00,,---,0.05,VWS V14.00,2013-08-07 21:29:00,
2013-08-07 14:30:00,63.3,56.3,30.12,SW,219,0.0,0.0,78,0.00,,---,0.05,VWS V14.00,2013-08-07 21:30:00,
2013-08-07 14:59:00,63.0,56.7,30.11,WSW,240,0.0,0.0,80,0.00,,---,0.05,VWS V14.00,2013-08-07 21:59:00,
2013-08-07 15:00:00,63.0,56.7,30.11,WSW,240,0.0,0.0,80,0.00,,---,0.05,VWS V14.00,2013-08-07 22:00:00,
2013-08-07 15:29:00,62.9,56.6,30.10,WSW,239,0.0,0.0,80,0.00,,---,0.05,VWS V14.00,2013-08-07 22:29:00,
2013-08-07 15:30:00,62.9,56.6,30.10,WSW,239,0.0,0.0,80,0.00,,---,0.05,VWS V14.00,2013-08-07 22:30:00,
2013-08-07 15:59:00,62.4,55.8,30.10,WNW,294,0.0,0.0,79,0.00,,---,0.05,VWS V14.00,2013-08-07 22:59:00,
2013-08-07 16:00:00,62.4,55.8,30.10,WNW,294,0.0,0.0,79,0.00,,---,0.05,VWS V14.00,2013-08-07 23:00:00,
2013-08-07 16:29:00,63.4,56.4,30.09,SSW,204,0.0,0.0,78,0.00,,---,0.05,VWS V14.00,2013-08-07 23:29:00,
2013-08-07 16:30:00,63.4,56.4,30.09,SSW,204,0.0,0.0,78,0.00,,---,0.05,VWS V14.00,2013-08-07 23:30:00,
2013-08-07 16:59:00,62.6,55.7,30.09,West,272,0.0,0.0,78,0.00,,---,0.05,VWS V14.00,2013-08-07 23:59:00,
2013-08-07 17:00:00,62.6,55.7,30.09,West,272,0.0,0.0,78,0.00,,---,0.05,VWS V14.00,2013-08-08 00:00:00,
2013-08-07 17:29:00,62.3,56.1,30.09,West,262,0.0,0.0,80,0.00,,---,0.05,VWS V14.00,2013-08-08 00:29:00,
2013-08-07 17:30:00,62.3,56.1,30.09,West,262,0.0,0.0,80,0.00,,---,0.05,VWS V14.00,2013-08-08 00:30:00,
2013-08-07 17:59:00,62.3,56.4,30.08,West,274,0.0,0.0,81,0.00,,---,0.05,VWS V14.00,2013-08-08 00:59:00,
2013-08-07 18:00:00,62.3,56.4,30.08,West,274,0.0,0.0,81,0.00,,---,0.05,VWS V14.00,2013-08-08 01:00:00,
2013-08-07 18:29:00,61.1,55.9,30.07,SW,223,0.0,0.0,83,0.00,,---,0.05,VWS V14.00,2013-08-08 01:29:00,
2013-08-07 18:30:00,61.1,55.9,30.07,SW,223,0.0,0.0,83,0.00,,---,0.05,VWS V14.00,2013-08-08 01:30:00,
2013-08-07 18:59:00,60.2,55.7,30.07,SW,215,0.0,0.0,85,0.00,,---,0.05,VWS V14.00,2013-08-08 01:59:00,
2013-08-07 19:00:00,60.2,55.7,30.07,SW,215,0.0,0.0,85,0.00,,---,0.05,VWS V14.00,2013-08-08 02:00:00,
2013-08-07 19:29:00,59.2,55.7,30.07,South,180,0.0,0.0,88,0.00,,---,0.05,VWS V14.00,2013-08-08 02:29:00,
2013-08-07 19:30:00,59.2,55.7,30.07,South,180,0.0,0.0,88,0.00,,---,0.05,VWS V14.00,2013-08-08 02:30:00,
2013-08-07 19:38:00,58.9,55.7,30.06,SSE,149,0.0,0.0,89,0.00,,---,0.05,VWS V14.00,2013-08-08 02:38:00,
2013-08-07 19:43:00,58.9,55.7,30.07,SSE,151,0.0,0.0,89,0.00,,---,0.05,VWS V14.00,2013-08-08 02:43:00,
2013-08-07 19:48:00,58.8,55.9,30.07,SSE,165,0.0,0.0,90,0.00,,---,0.05,VWS V14.00,2013-08-08 02:48:00,
2013-08-07 19:53:00,58.6,55.7,30.07,SSW,203,0.0,0.0,90,0.00,,---,0.05,VWS V14.00,2013-08-08 02:53:00,
2013-08-07 19:58:00,58.4,55.8,30.07,South,178,0.0,0.0,91,0.00,,---,0.05,VWS V14.00,2013-08-08 02:58:00,
2013-08-07 20:00:00,60.2,55.7,30.07,SW,215,0.0,0.0,85,0.00,,---,0.05,VWS V14.00,2013-08-08 03:00:00,
2013-08-07 20:02:00,58.2,55.6,30.07,South,187,0.0,0.0,91,0.00,,---,0.05,VWS V14.00,2013-08-08 03:02:00,
2013-08-07 20:07:00,58.1,55.8,30.07,SSE,161,0.0,0.0,92,0.00,,---,0.05,VWS V14.00,2013-08-08 03:07:00,
2013-08-07 20:12:00,58.1,55.8,30.07,SE,134,0.0,0.0,92,0.00,,---,0.05,VWS V14.00,2013-08-08 03:12:00,
2013-08-07 20:17:00,58.1,55.8,30.07,SSE,160,0.0,0.0,92,0.00,,---,0.05,VWS V14.00,2013-08-08 03:17:00,
2013-08-07 20:22:00,58.1,55.8,30.07,South,171,0.0,0.0,92,0.00,,---,0.05,VWS V14.00,2013-08-08 03:22:00,
2013-08-07 20:27:00,58.0,56.0,30.07,SE,132,0.0,0.0,93,0.00,,---,0.05,VWS V14.00,2013-08-08 03:27:00,
2013-08-07 20:30:00,59.2,55.7,30.07,South,180,0.0,0.0,88,0.00,,---,0.05,VWS V14.00,2013-08-08 03:30:00,
2013-08-07 20:32:00,58.0,56.0,30.07,South,188,0.0,0.0,93,0.00,,---,0.05,VWS V14.00,2013-08-08 03:32:00,
2013-08-07 20:37:00,58.0,56.0,30.07,SSW,213,0.0,0.0,93,0.00,,---,0.05,VWS V14.00,2013-08-08 03:37:00,
2013-08-07 20:42:00,57.9,55.9,30.07,SSE,154,0.0,0.0,93,0.00,,---,0.05,VWS V14.00,2013-08-08 03:42:00,
2013-08-07 20:47:00,57.9,55.9,30.07,SE,138,0.0,0.0,93,0.00,,---,0.05,VWS V14.00,2013-08-08 03:47:00,
2013-08-07 20:52:00,57.9,55.9,30.07,SSE,166,0.0,0.0,93,0.00,,---,0.05,VWS V14.00,2013-08-08 03:52:00,
2013-08-07 20:57:00,57.8,55.8,30.07,South,180,0.0,0.0,93,0.00,,---,0.05,VWS V14.00,2013-08-08 03:57:00,
2013-08-07 21:00:00,58.4,55.8,30.07,SE,136,0.0,0.0,91,0.00,,---,0.05,VWS V14.00,2013-08-08 04:00:00,
2013-08-07 21:01:00,57.8,55.8,30.07,SSE,164,0.0,0.0,93,0.00,,---,0.05,VWS V14.00,2013-08-08 04:01:00,
2013-08-07 21:06:00,57.7,56.0,30.08,SW,227,0.0,0.0,94,0.00,,---,0.05,VWS V14.00,2013-08-08 04:06:00,
2013-08-07 21:11:00,57.7,56.0,30.08,South,185,0.0,0.0,94,0.00,,---,0.05,VWS V14.00,2013-08-08 04:11:00,
2013-08-07 21:16:00,57.6,55.9,30.08,SSE,165,0.0,0.0,94,0.00,,---,0.05,VWS V14.00,2013-08-08 04:16:00,
2013-08-07 21:21:00,57.6,55.9,30.08,SSE,147,0.0,0.0,94,0.00,,---,0.05,VWS V14.00,2013-08-08 04:21:00,
2013-08-07 21:29:00,57.6,56.2,30.08,SE,141,0.0,0.0,95,0.00,,---,0.05,VWS V14.00,2013-08-08 04:29:00,
2013-08-07 21:30:00,58.0,56.0,30.07,SE,146,0.0,0.0,93,0.00,,---,0.05,VWS V14.00,2013-08-08 04:30:00,
2013-08-07 21:59:00,57.4,56.0,30.08,South,180,0.0,0.0,95,0.00,,---,0.05,VWS V14.00,2013-08-08 04:59:00,
2013-08-07 22:00:00,57.8,55.8,30.07,South,170,0.0,0.0,93,0.00,,---,0.05,VWS V14.00,2013-08-08 05:00:00,
2013-08-07 22:29:00,57.1,55.7,30.07,SSE,161,0.0,0.0,95,0.00,,---,0.05,VWS V14.00,2013-08-08 05:29:00,
2013-08-07 22:30:00,57.6,56.2,30.08,SE,141,0.0,0.0,95,0.00,,---,0.05,VWS V14.00,2013-08-08 05:30:00,
2013-08-07 22:59:00,56.8,55.7,30.07,SE,133,0.0,0.0,96,0.00,,---,0.05,VWS V14.00,2013-08-08 05:59:00,
2013-08-07 23:00:00,57.4,56.0,30.08,South,180,0.0,0.0,95,0.00,,---,0.05,VWS V14.00,2013-08-08 06:00:00,
2013-08-07 23:29:00,56.2,55.4,30.06,East,101,0.0,0.0,97,0.00,,---,0.05,VWS V14.00,2013-08-08 06:29:00,
2013-08-07 23:30:00,57.1,55.7,30.07,SSE,161,0.0,0.0,95,0.00,,---,0.05,VWS V14.00,2013-08-08 06:30:00,
2013-08-07 23:59:00,56.2,55.4,30.06,ESE,106,0.0,0.0,97,0.00,,---,0.00,VWS V14.00,2013-08-08 06:59:00,